Lake Station, Indiana
Current Conditions -  °F | °C
As of 5:45 AM on Friday 19 Dec 2014 (Local Time) from KGYY Reporting Station
Overcast Overcast  
Wind Chill: 30°   Ceiling: 2400
Heat Index: 30°   Visibility: 10mi
Dew Point: 21°   Wind: 3mph
Humidity: 69%   Direction: 250°WSW
Pressure: 30.28"   Gusts: NA
Location:  41.57°N, 87.24°W
Report Text: KGYY 191145Z 25003KT 10SM OVC024 M01/M06 A3028
Loading
Personal Weather Stations






























Interactive Weather Map New forecast layout! Learn more

10-Day Weather Forecast

Advertisements
Track Severe Weather on mobile